sensor_id;sensor_type;location;lat;lon;timestamp;pressure;altitude;pressure_sealevel;temperature;humidity
75933;BME280;64803;52.356;5.310;2023-04-03T00:01:32;103492.94;;;2.52;93.45
75933;BME280;64803;52.356;5.310;2023-04-03T00:03:58;103488.75;;;2.46;93.79
75933;BME280;64803;52.356;5.310;2023-04-03T00:06:25;103492.34;;;2.45;94.84
75933;BME280;64803;52.356;5.310;2023-04-03T00:08:52;103496.97;;;2.40;94.91
75933;BME280;64803;52.356;5.310;2023-04-03T00:11:18;103482.97;;;2.37;94.95
75933;BME280;64803;52.356;5.310;2023-04-03T00:13:45;103491.88;;;2.34;95.58
75933;BME280;64803;52.356;5.310;2023-04-03T00:16:12;103488.41;;;2.34;94.95
75933;BME280;64803;52.356;5.310;2023-04-03T00:18:39;103499.84;;;2.34;95.42
75933;BME280;64803;52.356;5.310;2023-04-03T00:21:06;103490.25;;;2.32;95.03
75933;BME280;64803;52.356;5.310;2023-04-03T00:23:32;103500.72;;;2.35;94.65
75933;BME280;64803;52.356;5.310;2023-04-03T00:25:58;103496.03;;;2.41;94.13
75933;BME280;64803;52.356;5.310;2023-04-03T00:28:24;103500.09;;;2.50;93.46
75933;BME280;64803;52.356;5.310;2023-04-03T00:30:51;103500.97;;;2.50;94.28
75933;BME280;64803;52.356;5.310;2023-04-03T00:33:17;103503.84;;;2.44;94.24
75933;BME280;64803;52.356;5.310;2023-04-03T00:35:48;103499.47;;;2.43;95.25
75933;BME280;64803;52.356;5.310;2023-04-03T00:38:14;103498.81;;;2.38;95.12
75933;BME280;64803;52.356;5.310;2023-04-03T00:40:46;103495.59;;;2.30;95.84
75933;BME280;64803;52.356;5.310;2023-04-03T00:43:22;103502.81;;;2.26;96.29
75933;BME280;64803;52.356;5.310;2023-04-03T00:45:51;103508.28;;;2.22;96.56
75933;BME280;64803;52.356;5.310;2023-04-03T00:48:21;103513.66;;;2.20;96.55
75933;BME280;64803;52.356;5.310;2023-04-03T00:50:49;103504.00;;;2.18;96.42
75933;BME280;64803;52.356;5.310;2023-04-03T00:53:19;103511.97;;;2.18;96.56
75933;BME280;64803;52.356;5.310;2023-04-03T00:55:48;103504.13;;;2.15;97.17
75933;BME280;64803;52.356;5.310;2023-04-03T00:58:17;103518.38;;;2.12;97.18
75933;BME280;64803;52.356;5.310;2023-04-03T01:00:48;103511.75;;;2.01;97.59
75933;BME280;64803;52.356;5.310;2023-04-03T01:03:19;103515.66;;;1.91;98.86
75933;BME280;64803;52.356;5.310;2023-04-03T01:05:46;103508.75;;;1.87;98.49
75933;BME280;64803;52.356;5.310;2023-04-03T01:08:12;103519.47;;;1.84;99.39
75933;BME280;64803;52.356;5.310;2023-04-03T01:10:42;103520.34;;;1.84;98.54
75933;BME280;64803;52.356;5.310;2023-04-03T01:13:30;103520.50;;;1.80;98.90
75933;BME280;64803;52.356;5.310;2023-04-03T01:16:00;103515.31;;;1.77;99.32
75933;BME280;64803;52.356;5.310;2023-04-03T01:18:27;103512.78;;;1.74;99.17
75933;BME280;64803;52.356;5.310;2023-04-03T01:21:25;103521.63;;;1.73;100.00
75933;BME280;64803;52.356;5.310;2023-04-03T01:24:08;103519.91;;;1.72;100.00
75933;BME280;64803;52.356;5.310;2023-04-03T01:26:37;103523.38;;;1.74;100.00
75933;BME280;64803;52.356;5.310;2023-04-03T01:29:05;103516.41;;;1.71;100.00
75933;BME280;64803;52.356;5.310;2023-04-03T01:31:52;103520.03;;;1.69;100.00
75933;BME280;64803;52.356;5.310;2023-04-03T01:34:19;103514.81;;;1.67;100.00
75933;BME280;64803;52.356;5.310;2023-04-03T01:36:45;103506.09;;;1.64;99.99
75933;BME280;64803;52.356;5.310;2023-04-03T01:39:11;103523.38;;;1.74;99.71
75933;BME280;64803;52.356;5.310;2023-04-03T01:41:38;103520.72;;;1.74;100.00
75933;BME280;64803;52.356;5.310;2023-04-03T01:44:12;103527.06;;;1.70;100.00
75933;BME280;64803;52.356;5.310;2023-04-03T01:46:39;103528.00;;;1.69;100.00
75933;BME280;64803;52.356;5.310;2023-04-03T01:49:05;103522.91;;;1.63;100.00
75933;BME280;64803;52.356;5.310;2023-04-03T01:51:31;103521.34;;;1.57;100.00
75933;BME280;64803;52.356;5.310;2023-04-03T01:53:58;103518.03;;;1.51;100.00
75933;BME280;64803;52.356;5.310;2023-04-03T01:56:24;103519.19;;;1.44;100.00
75933;BME280;64803;52.356;5.310;2023-04-03T01:58:51;103518.84;;;1.53;100.00
75933;BME280;64803;52.356;5.310;2023-04-03T02:01:17;103522.53;;;1.49;100.00
75933;BME280;64803;52.356;5.310;2023-04-03T02:03:43;103524.28;;;1.50;100.00
75933;BME280;64803;52.356;5.310;2023-04-03T02:06:09;103524.59;;;1.41;100.00
75933;BME280;64803;52.356;5.310;2023-04-03T02:08:35;103528.13;;;1.40;100.00
75933;BME280;64803;52.356;5.310;2023-04-03T02:11:01;103480.53;;;1.15;100.00
75933;BME280;64803;52.356;5.310;2023-04-03T02:13:28;103525.66;;;1.35;100.00
75933;BME280;64803;52.356;5.310;2023-04-03T02:15:54;103520.31;;;1.37;100.00
75933;BME280;64803;52.356;5.310;2023-04-03T02:18:20;103525.03;;;1.29;100.00
75933;BME280;64803;52.356;5.310;2023-04-03T02:20:46;103516.63;;;1.16;100.00
75933;BME280;64803;52.356;5.310;2023-04-03T02:23:12;103519.59;;;1.07;100.00
75933;BME280;64803;52.356;5.310;2023-04-03T02:25:38;103519.84;;;0.99;100.00
75933;BME280;64803;52.356;5.310;2023-04-03T02:28:05;103526.88;;;1.00;100.00
75933;BME280;64803;52.356;5.310;2023-04-03T02:30:31;103525.88;;;1.04;100.00
75933;BME280;64803;52.356;5.310;2023-04-03T02:32:57;103540.69;;;1.08;100.00
75933;BME280;64803;52.356;5.310;2023-04-03T02:35:24;103539.09;;;1.04;100.00
75933;BME280;64803;52.356;5.310;2023-04-03T02:37:50;103533.19;;;0.96;100.00
75933;BME280;64803;52.356;5.310;2023-04-03T02:40:16;103543.56;;;1.02;100.00
75933;BME280;64803;52.356;5.310;2023-04-03T02:42:42;103538.28;;;1.02;100.00
75933;BME280;64803;52.356;5.310;2023-04-03T02:45:09;103541.75;;;1.04;100.00
75933;BME280;64803;52.356;5.310;2023-04-03T02:47:35;103542.69;;;1.02;100.00
75933;BME280;64803;52.356;5.310;2023-04-03T02:50:01;103550.47;;;1.06;100.00
75933;BME280;64803;52.356;5.310;2023-04-03T02:52:27;103554.91;;;1.06;100.00
75933;BME280;64803;52.356;5.310;2023-04-03T02:54:56;103550.69;;;1.00;100.00
75933;BME280;64803;52.356;5.310;2023-04-03T02:57:22;103552.41;;;1.01;100.00
75933;BME280;64803;52.356;5.310;2023-04-03T02:59:48;103559.50;;;0.99;100.00
75933;BME280;64803;52.356;5.310;2023-04-03T03:02:14;103543.28;;;0.84;100.00
75933;BME280;64803;52.356;5.310;2023-04-03T03:04:40;103560.25;;;0.78;100.00
75933;BME280;64803;52.356;5.310;2023-04-03T03:07:06;103559.66;;;0.69;100.00
75933;BME280;64803;52.356;5.310;2023-04-03T03:09:32;103567.69;;;0.66;100.00
75933;BME280;64803;52.356;5.310;2023-04-03T03:11:58;103570.34;;;0.66;100.00
75933;BME280;64803;52.356;5.310;2023-04-03T03:14:24;103565.09;;;0.64;100.00
75933;BME280;64803;52.356;5.310;2023-04-03T03:16:50;103566.75;;;0.67;100.00
75933;BME280;64803;52.356;5.310;2023-04-03T03:19:17;103579.31;;;0.60;100.00
75933;BME280;64803;52.356;5.310;2023-04-03T03:21:43;103586.56;;;0.54;100.00
75933;BME280;64803;52.356;5.310;2023-04-03T03:24:09;103587.41;;;0.54;100.00
75933;BME280;64803;52.356;5.310;2023-04-03T03:26:35;103577.78;;;0.53;100.00
75933;BME280;64803;52.356;5.310;2023-04-03T03:29:02;103584.88;;;0.51;100.00
75933;BME280;64803;52.356;5.310;2023-04-03T03:31:28;103578.81;;;0.48;100.00
75933;BME280;64803;52.356;5.310;2023-04-03T03:33:55;103584.06;;;0.49;100.00
75933;BME280;64803;52.356;5.310;2023-04-03T03:36:22;103579.81;;;0.44;100.00
75933;BME280;64803;52.356;5.310;2023-04-03T03:38:48;103579.75;;;0.47;100.00
75933;BME280;64803;52.356;5.310;2023-04-03T03:41:14;103575.50;;;0.41;100.00
75933;BME280;64803;52.356;5.310;2023-04-03T03:43:42;103555.69;;;0.27;100.00
75933;BME280;64803;52.356;5.310;2023-04-03T03:46:08;103581.63;;;0.43;100.00
75933;BME280;64803;52.356;5.310;2023-04-03T03:48:34;103550.19;;;0.34;100.00
75933;BME280;64803;52.356;5.310;2023-04-03T03:51:01;103566.44;;;0.50;100.00
75933;BME280;64803;52.356;5.310;2023-04-03T03:53:31;103575.84;;;0.58;100.00
75933;BME280;64803;52.356;5.310;2023-04-03T03:56:03;103575.03;;;0.56;100.00
75933;BME280;64803;52.356;5.310;2023-04-03T03:58:31;103573.41;;;0.52;100.00
75933;BME280;64803;52.356;5.310;2023-04-03T04:01:02;103582.44;;;0.45;100.00
75933;BME280;64803;52.356;5.310;2023-04-03T04:03:29;103583.38;;;0.43;100.00
75933;BME280;64803;52.356;5.310;2023-04-03T04:05:55;103589.53;;;0.43;100.00
75933;BME280;64803;52.356;5.310;2023-04-03T04:08:22;103588.81;;;0.38;100.00
75933;BME280;64803;52.356;5.310;2023-04-03T04:10:48;103580.78;;;0.41;100.00
75933;BME280;64803;52.356;5.310;2023-04-03T04:13:16;103582.50;;;0.42;100.00
75933;BME280;64803;52.356;5.310;2023-04-03T04:15:43;103591.25;;;0.44;100.00
75933;BME280;64803;52.356;5.310;2023-04-03T04:18:09;103604.47;;;0.44;100.00
75933;BME280;64803;52.356;5.310;2023-04-03T04:20:35;103597.53;;;0.40;100.00
75933;BME280;64803;52.356;5.310;2023-04-03T04:23:02;103591.53;;;0.35;100.00
75933;BME280;64803;52.356;5.310;2023-04-03T04:25:29;103603.75;;;0.39;100.00
75933;BME280;64803;52.356;5.310;2023-04-03T04:27:55;103597.59;;;0.39;100.00
75933;BME280;64803;52.356;5.310;2023-04-03T04:30:21;103599.34;;;0.40;100.00
75933;BME280;64803;52.356;5.310;2023-04-03T04:32:49;103601.25;;;0.35;100.00
75933;BME280;64803;52.356;5.310;2023-04-03T04:35:15;103604.22;;;0.24;100.00
75933;BME280;64803;52.356;5.310;2023-04-03T04:37:43;103597.38;;;0.17;100.00
75933;BME280;64803;52.356;5.310;2023-04-03T04:40:10;103596.81;;;0.06;100.00
75933;BME280;64803;52.356;5.310;2023-04-03T04:42:36;103593.56;;;-0.04;100.00
75933;BME280;64803;52.356;5.310;2023-04-03T04:45:02;103585.81;;;-0.10;100.00
75933;BME280;64803;52.356;5.310;2023-04-03T04:47:29;103593.88;;;-0.14;100.00
75933;BME280;64803;52.356;5.310;2023-04-03T04:49:55;103590.56;;;-0.22;100.00
75933;BME280;64803;52.356;5.310;2023-04-03T04:52:22;103604.53;;;-0.19;100.00
75933;BME280;64803;52.356;5.310;2023-04-03T04:54:48;103607.22;;;-0.20;100.00
75933;BME280;64803;52.356;5.310;2023-04-03T04:57:14;103603.66;;;-0.19;100.00
75933;BME280;64803;52.356;5.310;2023-04-03T04:59:40;103615.28;;;-0.25;100.00
75933;BME280;64803;52.356;5.310;2023-04-03T05:02:07;103607.47;;;-0.29;100.00
75933;BME280;64803;52.356;5.310;2023-04-03T05:04:33;103611.13;;;-0.33;100.00
75933;BME280;64803;52.356;5.310;2023-04-03T05:07:05;103621.78;;;-0.38;100.00
75933;BME280;64803;52.356;5.310;2023-04-03T05:09:34;103614.03;;;-0.44;100.00
75933;BME280;64803;52.356;5.310;2023-04-03T05:12:01;103609.69;;;-0.46;100.00
75933;BME280;64803;52.356;5.310;2023-04-03T05:14:32;103610.56;;;-0.46;100.00
75933;BME280;64803;52.356;5.310;2023-04-03T05:17:02;103619.06;;;-0.35;100.00
75933;BME280;64803;52.356;5.310;2023-04-03T05:19:31;103618.47;;;-0.14;100.00
75933;BME280;64803;52.356;5.310;2023-04-03T05:21:58;103614.75;;;-0.07;100.00
75933;BME280;64803;52.356;5.310;2023-04-03T05:24:24;103616.69;;;-0.12;100.00
75933;BME280;64803;52.356;5.310;2023-04-03T05:26:50;103619.50;;;-0.19;100.00
75933;BME280;64803;52.356;5.310;2023-04-03T05:29:16;103626.59;;;-0.20;100.00
75933;BME280;64803;52.356;5.310;2023-04-03T05:31:42;103624.00;;;-0.23;100.00
75933;BME280;64803;52.356;5.310;2023-04-03T05:34:10;103628.25;;;-0.17;100.00
75933;BME280;64803;52.356;5.310;2023-04-03T05:36:38;103636.88;;;-0.09;100.00
75933;BME280;64803;52.356;5.310;2023-04-03T05:39:07;103647.09;;;0.03;100.00
75933;BME280;64803;52.356;5.310;2023-04-03T05:41:36;103645.22;;;0.07;100.00
75933;BME280;64803;52.356;5.310;2023-04-03T05:44:02;103643.28;;;0.13;100.00
75933;BME280;64803;52.356;5.310;2023-04-03T05:46:28;103613.63;;;0.02;100.00
75933;BME280;64803;52.356;5.310;2023-04-03T05:48:56;103638.72;;;0.18;100.00
75933;BME280;64803;52.356;5.310;2023-04-03T05:51:30;103640.28;;;0.25;100.00
75933;BME280;64803;52.356;5.310;2023-04-03T05:54:08;103640.91;;;0.33;100.00
75933;BME280;64803;52.356;5.310;2023-04-03T05:56:35;103651.22;;;0.42;100.00
75933;BME280;64803;52.356;5.310;2023-04-03T05:59:01;103650.19;;;0.48;100.00
75933;BME280;64803;52.356;5.310;2023-04-03T06:01:28;103657.06;;;0.53;100.00
75933;BME280;64803;52.356;5.310;2023-04-03T06:03:56;103656.88;;;0.61;100.00
75933;BME280;64803;52.356;5.310;2023-04-03T06:06:24;103654.06;;;0.65;100.00
75933;BME280;64803;52.356;5.310;2023-04-03T06:08:50;103647.69;;;0.72;100.00
75933;BME280;64803;52.356;5.310;2023-04-03T06:11:17;103654.50;;;0.79;100.00
75933;BME280;64803;52.356;5.310;2023-04-03T06:13:43;103663.16;;;0.84;100.00
75933;BME280;64803;52.356;5.310;2023-04-03T06:16:12;103668.28;;;0.90;100.00
75933;BME280;64803;52.356;5.310;2023-04-03T06:18:41;103668.81;;;1.01;100.00
75933;BME280;64803;52.356;5.310;2023-04-03T06:21:07;103667.66;;;1.10;100.00
75933;BME280;64803;52.356;5.310;2023-04-03T06:23:33;103670.00;;;1.19;100.00
75933;BME280;64803;52.356;5.310;2023-04-03T06:25:59;103669.66;;;1.30;100.00
75933;BME280;64803;52.356;5.310;2023-04-03T06:28:26;103671.97;;;1.40;100.00
75933;BME280;64803;52.356;5.310;2023-04-03T06:30:52;103667.25;;;1.50;100.00
75933;BME280;64803;52.356;5.310;2023-04-03T06:33:18;103657.13;;;1.61;100.00
75933;BME280;64803;52.356;5.310;2023-04-03T06:35:44;103669.97;;;1.73;100.00
75933;BME280;64803;52.356;5.310;2023-04-03T06:38:10;103666.09;;;1.83;100.00
75933;BME280;64803;52.356;5.310;2023-04-03T06:40:36;103667.69;;;1.87;100.00
75933;BME280;64803;52.356;5.310;2023-04-03T06:43:02;103677.41;;;1.88;100.00
75933;BME280;64803;52.356;5.310;2023-04-03T06:45:28;103680.69;;;1.94;100.00
75933;BME280;64803;52.356;5.310;2023-04-03T06:47:54;103683.78;;;2.07;100.00
75933;BME280;64803;52.356;5.310;2023-04-03T06:50:21;103688.16;;;2.08;100.00
75933;BME280;64803;52.356;5.310;2023-04-03T06:52:47;103689.66;;;2.15;100.00
75933;BME280;64803;52.356;5.310;2023-04-03T06:55:13;103664.41;;;2.05;100.00
75933;BME280;64803;52.356;5.310;2023-04-03T06:57:39;103686.97;;;2.16;100.00
75933;BME280;64803;52.356;5.310;2023-04-03T07:00:06;103686.88;;;2.19;100.00
75933;BME280;64803;52.356;5.310;2023-04-03T07:02:33;103701.56;;;2.28;100.00
75933;BME280;64803;52.356;5.310;2023-04-03T07:04:59;103695.28;;;2.30;100.00
75933;BME280;64803;52.356;5.310;2023-04-03T07:07:25;103706.31;;;2.43;100.00
75933;BME280;64803;52.356;5.310;2023-04-03T07:09:51;103713.13;;;2.50;100.00
75933;BME280;64803;52.356;5.310;2023-04-03T07:12:17;103712.03;;;2.56;100.00
75933;BME280;64803;52.356;5.310;2023-04-03T07:14:43;103710.84;;;2.64;100.00
75933;BME280;64803;52.356;5.310;2023-04-03T07:17:09;103718.56;;;2.70;100.00
75933;BME280;64803;52.356;5.310;2023-04-03T07:19:37;103712.09;;;2.77;100.00
75933;BME280;64803;52.356;5.310;2023-04-03T07:22:03;103720.50;;;2.88;100.00
75933;BME280;64803;52.356;5.310;2023-04-03T07:24:29;103718.84;;;2.86;100.00
75933;BME280;64803;52.356;5.310;2023-04-03T07:26:55;103720.38;;;2.91;100.00
75933;BME280;64803;52.356;5.310;2023-04-03T07:29:21;103724.50;;;3.00;99.46
75933;BME280;64803;52.356;5.310;2023-04-03T07:31:47;103728.34;;;2.91;97.25
75933;BME280;64803;52.356;5.310;2023-04-03T07:34:13;103728.81;;;2.79;97.20
75933;BME280;64803;52.356;5.310;2023-04-03T07:36:39;103728.00;;;2.77;98.49
75933;BME280;64803;52.356;5.310;2023-04-03T07:39:05;103705.19;;;2.73;98.87
75933;BME280;64803;52.356;5.310;2023-04-03T07:41:32;103730.72;;;2.99;98.53
75933;BME280;64803;52.356;5.310;2023-04-03T07:43:58;103719.91;;;3.03;98.18
75933;BME280;64803;52.356;5.310;2023-04-03T07:46:24;103701.03;;;3.11;96.40
75933;BME280;64803;52.356;5.310;2023-04-03T07:48:51;103726.38;;;3.19;95.47
75933;BME280;64803;52.356;5.310;2023-04-03T07:51:17;103683.94;;;2.96;95.64
75933;BME280;64803;52.356;5.310;2023-04-03T07:53:43;103720.81;;;3.25;94.50
75933;BME280;64803;52.356;5.310;2023-04-03T07:56:09;103710.06;;;3.28;94.55
75933;BME280;64803;52.356;5.310;2023-04-03T07:58:36;103714.75;;;3.43;94.23
75933;BME280;64803;52.356;5.310;2023-04-03T08:01:03;103729.94;;;3.40;92.61
75933;BME280;64803;52.356;5.310;2023-04-03T08:03:29;103721.53;;;3.51;93.20
75933;BME280;64803;52.356;5.310;2023-04-03T08:06:01;103727.66;;;3.53;92.27
75933;BME280;64803;52.356;5.310;2023-04-03T08:08:29;103727.56;;;3.56;93.26
75933;BME280;64803;52.356;5.310;2023-04-03T08:10:58;103726.94;;;3.71;90.46
75933;BME280;64803;52.356;5.310;2023-04-03T08:13:24;103734.91;;;3.71;89.86
75933;BME280;64803;52.356;5.310;2023-04-03T08:15:51;103732.31;;;3.89;88.08
75933;BME280;64803;52.356;5.310;2023-04-03T08:18:18;103730.16;;;3.99;91.62
75933;BME280;64803;52.356;5.310;2023-04-03T08:20:47;103735.94;;;4.08;89.01
75933;BME280;64803;52.356;5.310;2023-04-03T08:23:13;103739.31;;;4.12;86.59
75933;BME280;64803;52.356;5.310;2023-04-03T08:25:41;103740.53;;;4.25;85.94
75933;BME280;64803;52.356;5.310;2023-04-03T08:28:08;103740.19;;;4.32;82.01
75933;BME280;64803;52.356;5.310;2023-04-03T08:30:34;103739.19;;;4.35;84.02
75933;BME280;64803;52.356;5.310;2023-04-03T08:33:01;103744.44;;;4.36;84.01
75933;BME280;64803;52.356;5.310;2023-04-03T08:35:28;103756.47;;;4.45;80.58
75933;BME280;64803;52.356;5.310;2023-04-03T08:37:54;103748.75;;;4.59;83.85
75933;BME280;64803;52.356;5.310;2023-04-03T08:40:20;103700.81;;;4.40;84.15
75933;BME280;64803;52.356;5.310;2023-04-03T08:48:11;103754.97;;;4.78;78.76
75933;BME280;64803;52.356;5.310;2023-04-03T08:50:39;103749.22;;;4.87;70.30
75933;BME280;64803;52.356;5.310;2023-04-03T08:53:27;103746.31;;;4.93;69.71
75933;BME280;64803;52.356;5.310;2023-04-03T08:55:55;103753.00;;;5.20;70.88
75933;BME280;64803;52.356;5.310;2023-04-03T08:58:26;103757.72;;;5.32;74.54
75933;BME280;64803;52.356;5.310;2023-04-03T09:01:45;103761.19;;;5.34;69.38
75933;BME280;64803;52.356;5.310;2023-04-03T09:04:10;103759.72;;;5.46;66.90
75933;BME280;64803;52.356;5.310;2023-04-03T09:06:42;103755.44;;;5.43;68.74
75933;BME280;64803;52.356;5.310;2023-04-03T09:12:05;103752.81;;;5.60;65.62
75933;BME280;64803;52.356;5.310;2023-04-03T09:20:39;103746.00;;;5.91;62.27
75933;BME280;64803;52.356;5.310;2023-04-03T09:26:00;103745.75;;;6.12;64.31
75933;BME280;64803;52.356;5.310;2023-04-03T09:28:28;103740.66;;;6.08;59.81
75933;BME280;64803;52.356;5.310;2023-04-03T09:30:55;103736.66;;;6.16;61.06
75933;BME280;64803;52.356;5.310;2023-04-03T09:33:22;103736.13;;;6.10;59.35
75933;BME280;64803;52.356;5.310;2023-04-03T09:35:49;103733.28;;;6.13;61.14
75933;BME280;64803;52.356;5.310;2023-04-03T09:38:20;103724.97;;;6.19;61.66
75933;BME280;64803;52.356;5.310;2023-04-03T09:41:21;103727.09;;;6.29;54.93
75933;BME280;64803;52.356;5.310;2023-04-03T09:43:53;103729.56;;;6.49;60.41
75933;BME280;64803;52.356;5.310;2023-04-03T09:46:31;103718.34;;;6.43;55.02
75933;BME280;64803;52.356;5.310;2023-04-03T09:49:00;103726.22;;;6.61;55.84
75933;BME280;64803;52.356;5.310;2023-04-03T09:51:30;103722.03;;;6.73;53.38
75933;BME280;64803;52.356;5.310;2023-04-03T09:53:57;103715.47;;;6.63;50.16
75933;BME280;64803;52.356;5.310;2023-04-03T09:56:26;103723.16;;;6.69;49.46
75933;BME280;64803;52.356;5.310;2023-04-03T10:04:10;103713.28;;;6.87;49.07
75933;BME280;64803;52.356;5.310;2023-04-03T10:06:48;103692.59;;;6.90;48.32
75933;BME280;64803;52.356;5.310;2023-04-03T10:09:27;103689.06;;;7.05;49.93
75933;BME280;64803;52.356;5.310;2023-04-03T10:12:10;103697.09;;;7.21;48.73
75933;BME280;64803;52.356;5.310;2023-04-03T10:14:40;103669.06;;;7.12;46.06
75933;BME280;64803;52.356;5.310;2023-04-03T10:22:40;103688.19;;;7.20;48.14
75933;BME280;64803;52.356;5.310;2023-04-03T10:27:59;103675.03;;;7.17;45.35
75933;BME280;64803;52.356;5.310;2023-04-03T10:36:02;103661.59;;;8.08;45.25
75933;BME280;64803;52.356;5.310;2023-04-03T10:44:31;103662.28;;;8.11;45.99
75933;BME280;64803;52.356;5.310;2023-04-03T10:47:07;103661.81;;;8.19;43.59
75933;BME280;64803;52.356;5.310;2023-04-03T10:55:38;103655.47;;;8.06;44.52
75933;BME280;64803;52.356;5.310;2023-04-03T10:58:18;103636.72;;;8.06;45.26
75933;BME280;64803;52.356;5.310;2023-04-03T11:00:49;103640.50;;;8.17;44.41
75933;BME280;64803;52.356;5.310;2023-04-03T11:03:38;103648.22;;;8.22;46.47
75933;BME280;64803;52.356;5.310;2023-04-03T11:06:12;103652.50;;;8.40;47.21
75933;BME280;64803;52.356;5.310;2023-04-03T11:11:31;103646.88;;;8.00;42.01
75933;BME280;64803;52.356;5.310;2023-04-03T11:14:00;103657.63;;;8.29;44.77
75933;BME280;64803;52.356;5.310;2023-04-03T11:16:30;103648.94;;;8.53;44.75
75933;BME280;64803;52.356;5.310;2023-04-03T11:19:21;103652.19;;;8.72;47.37
75933;BME280;64803;52.356;5.310;2023-04-03T11:22:08;103619.53;;;8.80;43.91
75933;BME280;64803;52.356;5.310;2023-04-03T11:24:39;103644.25;;;8.71;43.79
75933;BME280;64803;52.356;5.310;2023-04-03T11:27:15;103645.78;;;8.47;41.86
75933;BME280;64803;52.356;5.310;2023-04-03T11:29:43;103644.03;;;8.74;44.43
75933;BME280;64803;52.356;5.310;2023-04-03T11:32:34;103643.88;;;8.63;43.71
75933;BME280;64803;52.356;5.310;2023-04-03T11:35:08;103640.13;;;8.65;43.72
75933;BME280;64803;52.356;5.310;2023-04-03T11:37:39;103635.25;;;8.58;43.94
75933;BME280;64803;52.356;5.310;2023-04-03T11:42:49;103635.31;;;8.84;47.32
75933;BME280;64803;52.356;5.310;2023-04-03T11:47:57;103625.28;;;8.74;43.77
75933;BME280;64803;52.356;5.310;2023-04-03T12:13:35;103601.16;;;8.88;43.07
75933;BME280;64803;52.356;5.310;2023-04-03T12:16:02;103587.66;;;9.16;46.01
75933;BME280;64803;52.356;5.310;2023-04-03T12:20:58;103581.72;;;9.38;41.56
75933;BME280;64803;52.356;5.310;2023-04-03T12:26:00;103571.47;;;9.57;45.84
75933;BME280;64803;52.356;5.310;2023-04-03T12:28:26;103566.59;;;9.10;40.56
75933;BME280;64803;52.356;5.310;2023-04-03T12:30:53;103570.47;;;9.06;43.79
75933;BME280;64803;52.356;5.310;2023-04-03T12:33:51;103552.72;;;9.30;46.27
75933;BME280;64803;52.356;5.310;2023-04-03T12:36:59;103545.41;;;9.20;44.25
75933;BME280;64803;52.356;5.310;2023-04-03T12:39:40;103549.50;;;9.25;45.17
75933;BME280;64803;52.356;5.310;2023-04-03T12:45:07;103550.31;;;9.65;45.84
75933;BME280;64803;52.356;5.310;2023-04-03T12:47:37;103546.13;;;9.61;43.00
75933;BME280;64803;52.356;5.310;2023-04-03T12:50:18;103539.78;;;9.49;43.56
75933;BME280;64803;52.356;5.310;2023-04-03T12:52:55;103532.16;;;9.43;41.22
75933;BME280;64803;52.356;5.310;2023-04-03T12:55:23;103533.63;;;9.22;42.76
75933;BME280;64803;52.356;5.310;2023-04-03T12:57:49;103515.75;;;8.96;42.41
75933;BME280;64803;52.356;5.310;2023-04-03T13:00:35;103523.03;;;8.94;44.77
75933;BME280;64803;52.356;5.310;2023-04-03T13:03:06;103526.78;;;9.31;41.59
75933;BME280;64803;52.356;5.310;2023-04-03T13:05:33;103529.72;;;9.13;40.68
75933;BME280;64803;52.356;5.310;2023-04-03T13:08:03;103523.66;;;9.37;43.37
75933;BME280;64803;52.356;5.310;2023-04-03T13:10:32;103519.94;;;9.39;44.26
75933;BME280;64803;52.356;5.310;2023-04-03T13:13:08;103524.00;;;9.57;47.00
75933;BME280;64803;52.356;5.310;2023-04-03T13:15:46;103527.44;;;9.59;41.58
75933;BME280;64803;52.356;5.310;2023-04-03T13:20:55;103520.59;;;9.68;45.08
75933;BME280;64803;52.356;5.310;2023-04-03T13:23:23;103518.47;;;9.60;42.57
75933;BME280;64803;52.356;5.310;2023-04-03T13:25:49;103524.88;;;9.70;44.73
75933;BME280;64803;52.356;5.310;2023-04-03T13:28:20;103520.44;;;9.32;41.13
75933;BME280;64803;52.356;5.310;2023-04-03T13:31:01;103516.38;;;9.39;43.70
75933;BME280;64803;52.356;5.310;2023-04-03T13:33:31;103511.16;;;9.62;46.53
75933;BME280;64803;52.356;5.310;2023-04-03T13:36:17;103514.16;;;9.83;44.48
75933;BME280;64803;52.356;5.310;2023-04-03T13:38:45;103512.66;;;10.04;48.18
75933;BME280;64803;52.356;5.310;2023-04-03T13:41:30;103500.03;;;10.30;42.82
75933;BME280;64803;52.356;5.310;2023-04-03T13:43:56;103519.28;;;10.23;42.22
75933;BME280;64803;52.356;5.310;2023-04-03T13:46:25;103507.59;;;10.12;44.29
75933;BME280;64803;52.356;5.310;2023-04-03T13:48:54;103520.47;;;10.07;43.51
75933;BME280;64803;52.356;5.310;2023-04-03T13:51:24;103516.28;;;9.90;41.09
75933;BME280;64803;52.356;5.310;2023-04-03T13:53:57;103509.09;;;9.78;43.04
75933;BME280;64803;52.356;5.310;2023-04-03T13:56:35;103510.06;;;9.77;43.62
75933;BME280;64803;52.356;5.310;2023-04-03T13:59:22;103508.69;;;9.72;42.44
75933;BME280;64803;52.356;5.310;2023-04-03T14:01:56;103481.53;;;9.51;41.68
75933;BME280;64803;52.356;5.310;2023-04-03T14:07:11;103495.91;;;10.00;47.07
75933;BME280;64803;52.356;5.310;2023-04-03T14:09:37;103500.34;;;10.38;41.71
75933;BME280;64803;52.356;5.310;2023-04-03T14:12:12;103509.09;;;10.03;42.98
75933;BME280;64803;52.356;5.310;2023-04-03T14:14:40;103495.25;;;10.09;45.73
75933;BME280;64803;52.356;5.310;2023-04-03T14:17:17;103494.75;;;10.41;42.14
75933;BME280;64803;52.356;5.310;2023-04-03T14:19:44;103482.22;;;10.29;43.49
75933;BME280;64803;52.356;5.310;2023-04-03T14:24:43;103478.69;;;10.15;41.60
75933;BME280;64803;52.356;5.310;2023-04-03T14:29:47;103479.72;;;10.38;44.95
75933;BME280;64803;52.356;5.310;2023-04-03T14:32:15;103466.13;;;10.29;40.77
75933;BME280;64803;52.356;5.310;2023-04-03T14:34:42;103469.09;;;10.60;45.99
75933;BME280;64803;52.356;5.310;2023-04-03T14:37:18;103463.59;;;10.62;45.73
75933;BME280;64803;52.356;5.310;2023-04-03T14:39:45;103464.53;;;10.73;42.91
75933;BME280;64803;52.356;5.310;2023-04-03T14:42:18;103463.31;;;10.54;42.18
75933;BME280;64803;52.356;5.310;2023-04-03T14:44:45;103467.75;;;10.55;43.90